EDT,Max TemperatureF,Mean TemperatureF,Min TemperatureF,Max Dew PointF,MeanDew PointF,Min DewpointF,Max Humidity, Mean Humidity, Min Humidity, Max Sea Level PressureIn, Mean Sea Level PressureIn, Min Sea Level PressureIn, Max VisibilityMiles, Mean VisibilityMiles, Min VisibilityMiles, Max Wind SpeedMPH, Mean Wind SpeedMPH, Max Gust SpeedMPH,PrecipitationIn, CloudCover, Events, WindDirDegrees
2012-3-1,62,52,42,52,35,28,88,50,27,29.92,29.88,29.81,10,10,10,22,11,33,0.00,1,,247
2012-3-2,60,53,46,55,43,28,100,70,41,29.91,29.76,29.59,10,9,2,24,8,29,0.85,5,Rain-Thunderstorm,180
2012-3-3,55,45,35,55,30,19,100,65,34,29.86,29.77,29.65,10,10,2,17,9,26,0.08,3,Rain,285
2012-3-4,35,32,30,30,25,19,93,75,60,29.88,29.81,29.76,10,9,0,16,9,25,0.00,6,Snow,289
2012-3-5,35,32,30,34,28,23,100,87,65,30.38,30.07,29.74,10,6,0,26,11,40,0.02,7,Snow,284
2012-3-6,60,40,21,30,23,19,93,56,25,30.49,30.43,30.39,10,10,10,13,5,22,0.00,0,,186
2012-3-7,62,52,42,43,34,21,67,50,39,30.49,30.42,30.35,10,10,10,24,14,31,0.00,0,,182
2012-3-8,60,56,51,52,46,43,100,76,55,30.34,30.25,30.13,10,9,5,20,14,31,0.36,5,Rain,190
2012-3-9,50,42,33,48,31,23,100,71,40,30.37,30.29,30.18,10,10,10,15,7,23,0.01,3,,323
2012-3-10,55,42,30,27,23,18,75,53,30,30.46,30.42,30.37,10,10,10,10,5,18,0.00,0,,11
2012-3-11,66,54,42,32,28,21,49,37,24,30.48,30.40,30.34,10,10,10,13,7,20,0.00,0,,172
2012-3-12,62,56,50,50,43,32,72,63,47,30.35,30.29,30.22,10,10,10,20,9,24,0.00,5,Rain,182
2012-3-13,71,63,55,57,54,50,100,80,49,30.24,30.21,30.17,10,10,10,18,11,26,0.00,6,,225
2012-3-14,75,63,51,54,51,46,94,71,36,30.31,30.26,30.23,10,10,10,9,3,16,0.00,2,,246
2012-3-15,73,62,51,55,50,45,88,69,50,30.33,30.29,30.26,10,10,3,16,6,23,0.00,3,Rain-Thunderstorm,224
2012-3-16,69,61,53,57,54,52,100,82,60,30.27,30.23,30.20,10,10,10,14,9,21,0.00,6,Rain-Thunderstorm,243
2012-3-17,71,61,51,57,54,50,100,83,56,30.30,30.25,30.22,10,10,10,16,5,21,0.01,4,,217
2012-3-18,69,62,55,59,56,52,100,83,56,30.35,30.29,30.22,10,10,5,10,6,,0.20,5,Rain,189
2012-3-19,78,66,53,55,52,48,100,65,39,30.29,30.23,30.17,10,10,10,9,5,,0.00,1,,227
2012-3-20,80,70,59,54,50,43,72,50,29,30.28,30.22,30.16,10,10,10,9,4,,0.00,1,,201
2012-3-21,77,66,55,57,55,52,94,63,44,30.31,30.25,30.21,10,10,10,9,5,,0.00,3,,173
2012-3-22,78,68,59,55,53,50,82,62,36,30.28,30.25,30.17,10,10,10,10,7,,0.00,1,,175
2012-3-23,71,65,59,59,56,55,88,72,57,30.20,30.13,30.01,10,10,10,15,4,22,0.00,5,Rain,180
2012-3-24,62,56,50,57,51,41,100,82,48,29.95,29.90,29.83,10,10,5,16,8,25,0.17,5,Rain-Thunderstorm,203
2012-3-25,55,50,44,54,49,45,100,98,87,29.92,29.88,29.83,10,9,2,12,5,18,0.04,8,Rain,311
2012-3-26,64,57,50,52,50,46,100,85,55,30.15,30.08,30.01,10,9,4,15,7,21,0.00,7,,336
2012-3-27,71,51,33,32,29,21,81,51,20,30.27,30.23,30.20,10,10,10,9,4,,0.00,0,,49
2012-3-28,73,66,59,54,50,43,68,54,41,30.16,30.06,29.97,10,10,10,21,14,29,0.00,2,,237
2012-3-29,69,61,53,55,46,37,82,57,35,30.07,30.02,29.98,10,10,10,14,9,22,0.00,1,Rain,311
2012-3-30,73,62,51,54,44,36,64,53,42,30.02,29.99,29.89,10,10,10,18,4,25,0.00,3,Thunderstorm,216
2012-3-31,69,60,51,57,54,50,100,84,49,29.91,29.88,29.84,10,8,0,14,8,18,0.13,7,Fog-Rain-Thunderstorm,265